Time;durP1;ratioP1;P1;durP2;ratioP2;P2;SDS_P1;SDS_P2;PMS_P1;PMS_P2;Temp;Humidity;BMP_temperature;BMP_pressure;BME280_temperature;BME280_humidity;BME280_pressure;Samples;Min_cycle;Max_cycle;Signal;HPM_P1;HPM_P2
2023/08/23 00:00:53;;;;;;;9.40;5.40;;;;;;;22.99;62.19;98486.00;5073571;28;20573;-69
2023/08/23 00:03:18;;;;;;;7.20;4.72;;;;;;;22.98;61.02;98481.66;5073289;28;20031;-69
2023/08/23 00:05:43;;;;;;;7.15;5.38;;;;;;;22.89;60.92;98472.56;5059266;28;20151;-69
2023/08/23 00:08:09;;;;;;;7.97;4.60;;;;;;;22.89;61.14;98478.06;5052094;28;20032;-68
2023/08/23 00:10:34;;;;;;;8.63;5.35;;;;;;;22.94;60.89;98488.88;5052140;28;20170;-69
2023/08/23 00:13:00;;;;;;;5.93;4.32;;;;;;;22.90;60.83;98490.66;5035177;28;20028;-69
2023/08/23 00:15:25;;;;;;;10.38;5.00;;;;;;;22.96;60.96;98489.41;5051905;28;20048;-70
2023/08/23 00:17:51;;;;;;;6.55;4.78;;;;;;;22.95;60.16;98482.28;5052143;28;20104;-69
2023/08/23 00:20:16;;;;;;;6.35;4.45;;;;;;;22.96;60.28;98472.91;5051768;28;20040;-69
2023/08/23 00:22:41;;;;;;;8.13;4.82;;;;;;;23.01;60.08;98480.19;5073199;28;20035;-68
2023/08/23 00:25:08;;;;;;;6.60;4.93;;;;;;;23.02;60.52;98477.13;5071927;28;20048;-69
2023/08/23 00:27:33;;;;;;;8.48;4.78;;;;;;;23.05;60.68;98476.50;5051902;28;20036;-68
2023/08/23 00:29:58;;;;;;;9.52;4.57;;;;;;;23.03;60.78;98467.78;5052236;28;20033;-69
2023/08/23 00:32:24;;;;;;;10.10;5.10;;;;;;;22.97;60.93;98468.22;5053243;28;20100;-70
2023/08/23 00:34:49;;;;;;;8.32;5.75;;;;;;;23.01;61.16;98481.00;5051833;28;20032;-69
2023/08/23 00:37:15;;;;;;;9.13;5.22;;;;;;;22.97;61.12;98482.75;5052613;28;20062;-69
2023/08/23 00:39:40;;;;;;;8.98;5.70;;;;;;;22.87;61.82;98488.53;5053614;28;20036;-69
2023/08/23 00:42:06;;;;;;;10.00;5.80;;;;;;;22.79;62.07;98486.56;5053999;28;20104;-69
2023/08/23 00:44:31;;;;;;;7.75;5.47;;;;;;;22.75;61.95;98482.84;5052531;28;20043;-69
2023/08/23 00:46:57;;;;;;;8.30;5.25;;;;;;;22.79;61.79;98483.81;5053473;28;20025;-69
2023/08/23 00:49:23;;;;;;;7.50;5.65;;;;;;;22.64;61.85;98465.00;5052302;28;20454;-69
2023/08/23 00:51:49;;;;;;;10.93;5.18;;;;;;;22.78;61.75;98484.94;5053682;28;20032;-69
2023/08/23 00:54:15;;;;;;;9.13;5.30;;;;;;;22.78;61.79;98476.69;5035880;28;20090;-70
2023/08/23 00:56:41;;;;;;;7.40;5.15;;;;;;;22.71;61.94;98476.34;5057985;28;20029;-70
2023/08/23 00:59:08;;;;;;;6.88;5.30;;;;;;;22.63;62.15;98475.19;5073889;28;20487;-70
2023/08/23 01:01:33;;;;;;;7.35;5.22;;;;;;;22.67;61.75;98475.38;5060189;28;20024;-71
2023/08/23 01:03:59;;;;;;;9.13;5.60;;;;;;;22.66;62.40;98480.03;5060035;28;20075;-71
2023/08/23 01:06:32;;;;;;;11.48;5.35;;;;;;;22.64;62.15;98481.47;5042155;28;20063;-70
2023/08/23 01:09:15;;;;;;;7.05;5.28;;;;;;;22.62;62.02;98489.22;5071551;28;20064;-72
2023/08/23 01:11:56;;;;;;;8.05;5.78;;;;;;;22.57;62.34;98483.84;5062809;28;20620;-71
2023/08/23 01:14:35;;;;;;;7.72;5.40;;;;;;;22.51;62.47;98487.84;5059147;28;20626;-70
2023/08/23 01:17:01;;;;;;;7.25;5.57;;;;;;;22.46;62.56;98486.06;5060617;28;20427;-71
2023/08/23 01:19:43;;;;;;;8.65;5.07;;;;;;;22.35;62.53;98473.72;5065810;28;20092;-71
2023/08/23 01:22:10;;;;;;;7.10;5.60;;;;;;;22.43;62.97;98485.84;5065714;28;20036;-72
2023/08/23 01:24:36;;;;;;;7.28;5.22;;;;;;;22.29;63.37;98480.44;5044884;28;20032;-71
2023/08/23 01:27:02;;;;;;;10.48;5.47;;;;;;;22.21;63.85;98488.63;5057807;28;20548;-71
2023/08/23 01:29:28;;;;;;;8.40;5.35;;;;;;;22.18;63.47;98472.78;5052237;28;20394;-71
2023/08/23 01:31:57;;;;;;;9.32;5.60;;;;;;;22.21;63.36;98494.94;5055737;28;20036;-68
2023/08/23 01:34:28;;;;;;;11.05;5.50;;;;;;;22.14;63.28;98494.56;5044777;28;20028;-69
2023/08/23 01:36:54;;;;;;;6.97;5.35;;;;;;;22.01;63.42;98490.75;5055655;28;20082;-69
2023/08/23 01:39:25;;;;;;;9.10;5.68;;;;;;;22.01;63.33;98501.72;5062029;28;20426;-72
2023/08/23 01:41:51;;;;;;;10.02;5.78;;;;;;;21.96;63.59;98499.09;5058397;28;20032;-69
2023/08/23 01:44:17;;;;;;;10.13;5.25;;;;;;;21.89;63.83;98493.22;5043788;28;20120;-69
2023/08/23 01:46:42;;;;;;;9.40;5.32;;;;;;;21.95;63.71;98488.44;5071465;28;20071;-69
2023/08/23 01:49:08;;;;;;;6.57;5.00;;;;;;;21.96;63.86;98493.63;5061301;28;20128;-70
2023/08/23 01:51:33;;;;;;;8.85;5.40;;;;;;;22.02;63.50;98492.38;5053815;28;20425;-69
2023/08/23 01:54:01;;;;;;;7.88;5.53;;;;;;;21.74;64.15;98468.91;5072109;28;20027;-69
2023/08/23 01:56:26;;;;;;;7.75;5.90;;;;;;;21.79;64.77;98498.94;5053123;28;20037;-68
2023/08/23 01:58:52;;;;;;;9.40;5.80;;;;;;;21.75;64.76;98491.66;5050883;28;20134;-67
2023/08/23 02:01:18;;;;;;;11.02;5.95;;;;;;;21.70;64.56;98478.88;5052989;28;20047;-69
2023/08/23 02:03:43;;;;;;;7.03;5.75;;;;;;;21.67;64.68;98474.00;5052328;28;20027;-71
2023/08/23 02:06:09;;;;;;;8.48;5.75;;;;;;;21.69;64.90;98487.38;5098218;28;20029;-68
2023/08/23 02:08:35;;;;;;;6.60;5.40;;;;;;;21.73;64.83;98491.94;5095459;28;20111;-68
2023/08/23 02:11:01;;;;;;;11.82;5.90;;;;;;;21.57;65.24;98484.38;5057595;28;20062;-68
2023/08/23 02:13:26;;;;;;;7.90;5.82;;;;;;;21.59;65.33;98488.44;5052105;28;20119;-68
2023/08/23 02:15:52;;;;;;;10.10;5.40;;;;;;;21.54;65.50;98485.00;5070084;28;20040;-68
2023/08/23 02:18:19;;;;;;;7.55;6.25;;;;;;;21.56;65.33;98483.56;5059091;28;20109;-67
2023/08/23 02:20:44;;;;;;;10.80;5.63;;;;;;;21.61;65.28;98482.66;5033449;28;20067;-68
2023/08/23 02:23:09;;;;;;;8.43;5.90;;;;;;;21.59;65.31;98477.47;5033177;28;20049;-68
2023/08/23 02:25:35;;;;;;;10.20;5.70;;;;;;;21.58;65.59;98464.88;5062900;28;20776;-68
2023/08/23 02:28:01;;;;;;;9.48;5.32;;;;;;;21.58;65.63;98470.38;5060664;28;20032;-68
2023/08/23 02:30:26;;;;;;;6.95;5.93;;;;;;;21.53;65.78;98475.97;5057417;28;20044;-72
2023/08/23 02:32:53;;;;;;;7.80;6.38;;;;;;;21.48;65.66;98470.59;5059076;28;20036;-72
2023/08/23 02:35:18;;;;;;;8.32;6.15;;;;;;;21.23;66.62;98474.72;5063197;28;20041;-72
2023/08/23 02:37:44;;;;;;;9.52;6.65;;;;;;;21.12;66.93;98456.84;5060245;28;20101;-70
2023/08/23 02:40:09;;;;;;;10.57;6.68;;;;;;;21.04;66.96;98464.94;5052788;28;20040;-69
2023/08/23 02:42:34;;;;;;;11.40;6.18;;;;;;;21.15;67.09;98471.84;5051624;28;20028;-71
2023/08/23 02:45:03;;;;;;;9.82;5.90;;;;;;;21.15;67.11;98477.34;5054992;28;20040;-70
2023/08/23 02:47:28;;;;;;;9.80;6.18;;;;;;;21.15;67.16;98478.16;5037126;28;20691;-70
2023/08/23 02:49:53;;;;;;;9.82;6.03;;;;;;;21.20;66.98;98482.72;5054898;28;20033;-70
2023/08/23 02:52:19;;;;;;;8.35;5.80;;;;;;;21.11;66.84;98471.69;5037097;28;20475;-71
2023/08/23 02:54:44;;;;;;;8.30;6.72;;;;;;;21.10;66.83;98485.66;5066824;28;20033;-70
2023/08/23 02:57:10;;;;;;;7.00;5.85;;;;;;;21.09;67.05;98486.78;5065116;28;20714;-70
2023/08/23 02:59:35;;;;;;;11.40;6.70;;;;;;;20.95;67.27;98475.00;5043315;28;20061;-70
2023/08/23 03:02:00;;;;;;;7.53;6.40;;;;;;;21.00;67.27;98480.38;5046558;28;20032;-69
2023/08/23 03:04:26;;;;;;;8.82;5.90;;;;;;;20.99;67.30;98481.47;5053289;28;20074;-69
2023/08/23 03:06:51;;;;;;;8.65;6.05;;;;;;;21.03;67.41;98483.31;5063559;28;20067;-70
2023/08/23 03:09:17;;;;;;;10.32;5.95;;;;;;;21.05;67.55;98483.06;5060094;28;20044;-69
2023/08/23 03:11:42;;;;;;;8.90;7.18;;;;;;;21.03;67.50;98479.75;5064442;28;20104;-69
2023/08/23 03:14:07;;;;;;;10.27;6.50;;;;;;;20.92;67.25;98470.13;5057319;28;20747;-70
2023/08/23 03:16:33;;;;;;;10.00;7.10;;;;;;;21.03;67.44;98485.22;5064547;28;20066;-69
2023/08/23 03:18:59;;;;;;;7.72;6.95;;;;;;;20.87;67.52;98472.94;5070980;28;20115;-69
2023/08/23 03:21:26;;;;;;;13.35;7.28;;;;;;;20.83;68.08;98485.63;5073099;28;20502;-70
2023/08/23 03:23:51;;;;;;;9.55;6.82;;;;;;;20.83;68.02;98491.94;5059354;28;20151;-70
2023/08/23 03:26:17;;;;;;;9.00;6.90;;;;;;;20.82;68.20;98490.28;5063399;28;20060;-69
2023/08/23 03:28:42;;;;;;;7.88;6.75;;;;;;;20.83;68.26;98486.47;5055424;28;20032;-69
2023/08/23 03:31:09;;;;;;;7.95;6.50;;;;;;;20.70;68.68;98470.03;5074232;28;20032;-69
2023/08/23 03:33:35;;;;;;;7.32;6.55;;;;;;;20.69;68.34;98477.41;5053238;28;20056;-69
2023/08/23 03:36:01;;;;;;;8.93;6.72;;;;;;;20.77;68.59;98492.34;5063341;28;20044;-70
2023/08/23 03:38:27;;;;;;;9.40;7.20;;;;;;;20.74;68.66;98487.47;5060777;28;20036;-70
2023/08/23 03:40:52;;;;;;;10.27;7.00;;;;;;;20.77;68.81;98495.06;5064871;28;20495;-70
2023/08/23 03:43:18;;;;;;;11.68;6.78;;;;;;;20.74;68.34;98482.81;5065809;28;20482;-69
2023/08/23 03:45:48;;;;;;;12.98;7.57;;;;;;;20.76;68.28;98480.56;5045373;28;20483;-71
2023/08/23 03:48:14;;;;;;;8.10;6.57;;;;;;;20.80;68.36;98486.22;5042580;28;20402;-69
2023/08/23 03:50:40;;;;;;;8.15;6.53;;;;;;;20.75;68.68;98492.63;5062810;28;20023;-69
2023/08/23 03:53:05;;;;;;;9.23;6.78;;;;;;;20.77;68.42;98492.34;5065981;28;20501;-70
2023/08/23 03:55:31;;;;;;;12.20;6.85;;;;;;;20.75;68.44;98489.88;5044511;28;20040;-69
2023/08/23 03:57:56;;;;;;;9.60;7.13;;;;;;;20.76;68.36;98490.69;5056348;28;20079;-69
2023/08/23 04:00:22;;;;;;;7.80;7.00;;;;;;;20.56;68.44;98470.81;5052398;28;20489;-70
2023/08/23 04:02:47;;;;;;;11.90;7.25;;;;;;;20.71;68.47;98488.06;5069683;28;20082;-69
2023/08/23 04:05:13;;;;;;;10.73;7.55;;;;;;;20.62;68.56;98486.03;5045610;28;20025;-69
2023/08/23 04:07:39;;;;;;;12.32;7.82;;;;;;;20.57;68.55;98486.13;5035545;28;20029;-69
2023/08/23 04:10:05;;;;;;;8.43;7.22;;;;;;;20.53;69.09;98482.38;5062294;28;20035;-67
2023/08/23 04:12:30;;;;;;;9.15;7.55;;;;;;;20.51;69.18;98478.31;5058482;28;20032;-68
2023/08/23 04:14:56;;;;;;;10.15;8.65;;;;;;;20.42;69.29;98491.88;5061954;28;20531;-69
2023/08/23 04:17:22;;;;;;;11.10;8.95;;;;;;;20.23;69.47;98491.13;5021866;28;20071;-71
2023/08/23 04:19:47;;;;;;;13.02;8.43;;;;;;;19.92;69.98;98484.50;5072041;28;20027;-69
2023/08/23 04:22:12;;;;;;;12.68;8.57;;;;;;;19.84;70.66;98493.34;5070269;28;20041;-70
2023/08/23 04:24:38;;;;;;;12.73;9.40;;;;;;;19.64;71.48;98485.47;5052964;28;20040;-71
2023/08/23 04:27:03;;;;;;;15.05;8.68;;;;;;;19.71;71.32;98485.91;5052637;28;20033;-72
2023/08/23 04:29:29;;;;;;;10.43;8.73;;;;;;;19.66;71.47;98477.78;5051855;28;20017;-72
2023/08/23 04:31:54;;;;;;;8.55;7.63;;;;;;;19.76;71.57;98488.56;5051556;28;20041;-72
2023/08/23 04:34:26;;;;;;;9.85;7.50;;;;;;;19.78;71.61;98491.81;5035647;28;20104;-71
2023/08/23 04:36:54;;;;;;;10.27;7.65;;;;;;;19.83;71.23;98486.28;5051529;28;20159;-71
2023/08/23 04:39:20;;;;;;;10.57;7.32;;;;;;;19.86;70.90;98488.44;5035232;28;20039;-71
2023/08/23 04:41:45;;;;;;;11.65;8.60;;;;;;;19.75;71.49;98471.34;5018402;28;20033;-71
2023/08/23 04:44:13;;;;;;;13.82;8.10;;;;;;;19.90;71.15;98483.97;5052701;28;20021;-71
2023/08/23 04:46:39;;;;;;;12.52;8.18;;;;;;;19.88;71.42;98486.22;5051331;28;20454;-70
2023/08/23 04:49:08;;;;;;;9.85;8.15;;;;;;;19.93;71.34;98499.78;5051509;28;20024;-71
2023/08/23 04:51:33;;;;;;;10.90;8.45;;;;;;;19.82;71.90;98488.19;5051448;28;20028;-72
2023/08/23 04:53:58;;;;;;;11.43;7.80;;;;;;;19.87;71.64;98490.03;5051636;28;20024;-71
2023/08/23 04:56:24;;;;;;;11.77;7.72;;;;;;;19.99;71.48;98498.59;5034952;28;20036;-70
2023/08/23 04:58:49;;;;;;;9.15;7.25;;;;;;;19.91;71.61;98491.06;5034949;28;20083;-71
2023/08/23 05:01:16;;;;;;;11.05;7.63;;;;;;;19.92;71.29;98476.28;5036173;28;20150;-71
2023/08/23 05:03:42;;;;;;;10.15;8.27;;;;;;;20.11;71.46;98496.22;5069662;28;20368;-71
2023/08/23 05:06:08;;;;;;;9.05;7.68;;;;;;;20.12;71.81;98495.09;5051652;28;20037;-72
2023/08/23 05:08:34;;;;;;;10.48;8.15;;;;;;;20.25;71.00;98507.22;5035367;28;20052;-73
2023/08/23 05:11:04;;;;;;;9.70;8.15;;;;;;;20.19;71.46;98508.38;5019177;28;20649;-73
2023/08/23 05:13:30;;;;;;;12.48;8.02;;;;;;;20.30;71.45;98507.97;5052099;28;20036;-72
2023/08/23 05:15:56;;;;;;;10.38;7.28;;;;;;;20.29;70.99;98487.19;5034038;28;20080;-72
2023/08/23 05:18:22;;;;;;;11.05;8.15;;;;;;;20.41;70.48;98490.25;5034321;28;20029;-72
2023/08/23 05:20:55;;;;;;;13.82;7.45;;;;;;;20.61;70.60;98505.47;5034215;28;20025;-73
2023/08/23 05:23:22;;;;;;;12.25;7.47;;;;;;;20.60;70.36;98487.44;5034202;28;20601;-72
2023/08/23 05:25:47;;;;;;;15.55;6.90;;;;;;;20.75;69.60;98494.56;5033825;28;20025;-75
2023/08/23 05:28:13;;;;;;;10.27;7.15;;;;;;;20.83;69.96;98507.53;5034296;28;20483;-71
2023/08/23 05:30:39;;;;;;;10.63;7.10;;;;;;;20.92;69.71;98512.00;5050440;28;20032;-71
2023/08/23 05:33:07;;;;;;;10.07;7.75;;;;;;;20.88;69.67;98515.66;5034212;28;20082;-70
2023/08/23 05:35:33;;;;;;;10.32;7.85;;;;;;;20.94;69.49;98492.53;5033733;28;20025;-71
2023/08/23 05:37:58;;;;;;;10.75;7.20;;;;;;;20.96;69.90;98493.84;5051829;28;20028;-71
2023/08/23 05:40:24;;;;;;;12.25;7.78;;;;;;;20.97;69.95;98480.97;5033994;28;20017;-70
2023/08/23 05:42:50;;;;;;;12.02;7.63;;;;;;;21.24;69.70;98500.16;5033546;28;20041;-70
2023/08/23 05:45:15;;;;;;;10.68;7.63;;;;;;;21.24;69.69;98502.91;5033632;28;20112;-71
2023/08/23 05:47:41;;;;;;;10.68;8.10;;;;;;;21.28;69.34;98509.41;5050285;28;20071;-73
2023/08/23 05:50:06;;;;;;;10.88;7.18;;;;;;;21.35;68.85;98515.28;5033601;28;20472;-72
2023/08/23 05:52:32;;;;;;;11.95;7.10;;;;;;;21.35;68.69;98510.59;5033482;28;20128;-70
2023/08/23 05:54:57;;;;;;;9.50;7.13;;;;;;;21.36;68.36;98516.88;5050026;28;20064;-71
2023/08/23 05:57:22;;;;;;;11.25;7.63;;;;;;;21.34;68.38;98516.38;5050267;28;20028;-71
2023/08/23 05:59:48;;;;;;;11.25;7.40;;;;;;;21.28;68.27;98510.19;5033534;28;20032;-70
2023/08/23 06:02:13;;;;;;;15.38;7.45;;;;;;;21.48;68.06;98525.41;5050202;28;20048;-72
2023/08/23 06:04:39;;;;;;;14.35;7.50;;;;;;;21.35;68.24;98507.06;5050866;28;20021;-72
2023/08/23 06:07:04;;;;;;;11.65;7.55;;;;;;;21.53;67.95;98519.81;5051081;28;20040;-71
2023/08/23 06:09:33;;;;;;;9.75;7.40;;;;;;;21.63;67.82;98525.09;5051210;28;20029;-71
2023/08/23 06:11:59;;;;;;;14.27;7.93;;;;;;;21.64;68.04;98531.34;5051105;28;20083;-72
2023/08/23 06:14:24;;;;;;;9.75;8.07;;;;;;;21.75;67.88;98530.81;5056147;28;20016;-70
2023/08/23 06:16:50;;;;;;;13.07;8.02;;;;;;;21.79;67.57;98515.41;5071040;28;20480;-70
2023/08/23 06:19:15;;;;;;;10.98;7.22;;;;;;;21.95;67.61;98524.91;5070869;28;20067;-70
2023/08/23 06:21:44;;;;;;;11.43;7.45;;;;;;;21.93;67.71;98527.16;5070924;28;20044;-69
2023/08/23 06:24:10;;;;;;;12.43;7.75;;;;;;;22.01;67.56;98518.19;5069595;28;20028;-70
2023/08/23 06:26:35;;;;;;;11.35;7.28;;;;;;;22.16;67.37;98524.44;5069968;28;20534;-69
2023/08/23 06:29:03;;;;;;;11.00;7.50;;;;;;;22.13;67.39;98508.56;5069966;28;20052;-69
2023/08/23 06:31:29;;;;;;;10.65;7.68;;;;;;;22.22;67.38;98529.47;5069763;28;20063;-68
2023/08/23 06:33:54;;;;;;;9.60;7.45;;;;;;;22.35;67.23;98533.28;5069392;28;20040;-69
2023/08/23 06:36:20;;;;;;;9.63;7.35;;;;;;;22.41;66.90;98534.78;5069956;28;20511;-69
2023/08/23 06:38:45;;;;;;;10.55;7.60;;;;;;;22.25;67.33;98534.34;5071052;28;20104;-70
2023/08/23 06:41:11;;;;;;;13.13;7.97;;;;;;;22.24;67.26;98520.94;5071226;28;20044;-69
2023/08/23 06:43:36;;;;;;;12.85;7.95;;;;;;;22.32;67.25;98533.91;5069689;28;20028;-69
2023/08/23 06:46:02;;;;;;;14.75;7.97;;;;;;;22.37;67.37;98542.00;5053645;28;20037;-69
2023/08/23 06:48:28;;;;;;;10.75;7.53;;;;;;;22.48;67.13;98532.41;5050710;28;20112;-68
2023/08/23 06:50:58;;;;;;;10.15;7.65;;;;;;;22.45;67.46;98527.56;5033049;28;20029;-68
2023/08/23 06:53:24;;;;;;;10.20;7.55;;;;;;;22.42;66.93;98517.19;5069774;28;20094;-69
2023/08/23 06:55:49;;;;;;;13.35;7.78;;;;;;;22.26;67.27;98507.72;5052747;28;20044;-73
2023/08/23 06:58:15;;;;;;;13.50;7.60;;;;;;;22.25;66.92;98486.88;5069633;28;20069;-73
2023/08/23 07:00:40;;;;;;;9.23;7.32;;;;;;;22.52;67.37;98527.91;5069750;28;20082;-73
2023/08/23 07:03:06;;;;;;;12.68;7.78;;;;;;;22.58;67.13;98516.50;5052751;28;20120;-72
2023/08/23 07:05:35;;;;;;;9.70;7.28;;;;;;;22.80;66.84;98529.38;5057091;28;20551;-74
2023/08/23 07:08:03;;;;;;;11.70;7.70;;;;;;;22.85;66.95;98523.75;5049937;28;20468;-72
2023/08/23 07:10:29;;;;;;;11.00;7.60;;;;;;;22.82;66.93;98505.19;5049670;28;20021;-73
2023/08/23 07:12:55;;;;;;;18.35;7.50;;;;;;;22.97;66.18;98523.16;5050706;28;20037;-73
2023/08/23 07:15:21;;;;;;;11.38;7.43;;;;;;;23.04;65.91;98523.50;5050762;28;20028;-73
2023/08/23 07:17:47;;;;;;;8.00;6.60;;;;;;;23.18;65.74;98527.78;5050881;28;20056;-72
2023/08/23 07:20:13;;;;;;;13.20;7.63;;;;;;;23.02;65.85;98515.59;5033001;28;20036;-73
2023/08/23 07:22:39;;;;;;;14.30;7.32;;;;;;;23.13;66.11;98538.09;5049282;28;20037;-73
2023/08/23 07:25:05;;;;;;;11.18;7.05;;;;;;;23.28;65.81;98530.25;5049381;28;20124;-73
2023/08/23 07:27:30;;;;;;;11.43;7.20;;;;;;;23.35;65.55;98525.13;5050623;28;20043;-72
2023/08/23 07:29:56;;;;;;;11.95;6.88;;;;;;;23.43;65.26;98514.47;5035720;28;20017;-72
2023/08/23 07:32:22;;;;;;;10.15;7.13;;;;;;;23.70;65.04;98530.69;5054323;28;20051;-74
2023/08/23 07:34:47;;;;;;;7.68;6.55;;;;;;;23.53;64.73;98497.63;5053958;28;20074;-73
2023/08/23 07:37:14;;;;;;;9.88;6.97;;;;;;;23.86;63.69;98534.56;5053373;28;20036;-72
2023/08/23 07:39:39;;;;;;;12.15;7.45;;;;;;;23.88;64.11;98540.56;5054518;28;20108;-73
2023/08/23 07:42:05;;;;;;;11.27;7.05;;;;;;;23.75;63.50;98527.78;5054470;28;20112;-73
2023/08/23 07:44:30;;;;;;;10.70;7.13;;;;;;;23.80;63.62;98546.88;5054423;28;20021;-73
2023/08/23 07:46:56;;;;;;;12.48;7.15;;;;;;;23.77;63.83;98525.50;5036175;28;20044;-70
2023/08/23 07:49:21;;;;;;;9.10;6.75;;;;;;;23.98;62.71;98549.31;5054235;28;20067;-72
2023/08/23 07:51:48;;;;;;;12.13;6.85;;;;;;;23.90;62.97;98541.03;5052860;28;20088;-73
2023/08/23 07:54:13;;;;;;;11.93;6.40;;;;;;;24.11;62.03;98544.81;5053689;28;20383;-73
2023/08/23 07:56:39;;;;;;;11.65;6.75;;;;;;;24.15;62.02;98518.28;5036080;28;20036;-74
2023/08/23 07:59:04;;;;;;;8.23;6.45;;;;;;;24.28;61.35;98522.78;5036383;28;20104;-74
2023/08/23 08:01:30;;;;;;;9.65;6.57;;;;;;;24.40;61.07;98541.41;5036024;28;20458;-74
2023/08/23 08:03:55;;;;;;;8.00;6.05;;;;;;;24.47;60.39;98537.03;5031960;28;20021;-73
2023/08/23 08:06:21;;;;;;;8.75;6.32;;;;;;;24.48;60.94;98533.13;5058212;28;20040;-73
2023/08/23 08:08:46;;;;;;;11.02;6.10;;;;;;;24.58;60.51;98523.69;5061091;28;20040;-73
2023/08/23 08:11:12;;;;;;;12.93;7.00;;;;;;;24.66;60.66;98531.97;5054931;28;20111;-74
2023/08/23 08:13:38;;;;;;;10.95;6.57;;;;;;;24.69;60.75;98531.28;5035428;28;20561;-74
2023/08/23 08:16:11;;;;;;;12.05;6.78;;;;;;;24.72;60.61;98552.69;5035527;28;20033;-74
2023/08/23 08:18:36;;;;;;;9.75;5.88;;;;;;;24.80;60.48;98550.28;5053363;28;20426;-73
2023/08/23 08:21:02;;;;;;;9.70;6.13;;;;;;;24.67;60.18;98528.06;5035417;28;20047;-73
2023/08/23 08:23:28;;;;;;;9.80;6.30;;;;;;;24.93;59.44;98541.78;5035576;28;20533;-74
2023/08/23 08:25:54;;;;;;;8.25;6.03;;;;;;;25.03;60.28;98546.13;5051731;28;20048;-75
2023/08/23 08:28:19;;;;;;;10.40;6.40;;;;;;;25.16;59.17;98550.63;5051995;28;20480;-74
2023/08/23 08:30:44;;;;;;;8.35;6.10;;;;;;;25.16;59.36;98556.94;5052142;28;20104;-74
2023/08/23 08:33:10;;;;;;;8.25;5.43;;;;;;;25.36;58.84;98550.72;5035002;28;20036;-74
2023/08/23 08:35:35;;;;;;;9.60;5.72;;;;;;;25.48;58.41;98552.78;5051560;28;20025;-74
2023/08/23 08:38:00;;;;;;;7.55;6.00;;;;;;;25.47;57.28;98551.16;5051633;28;20033;-73
2023/08/23 08:40:26;;;;;;;14.60;5.90;;;;;;;25.22;57.33;98527.25;5052641;28;20032;-74
2023/08/23 08:42:52;;;;;;;10.10;5.40;;;;;;;25.32;57.41;98526.88;5050908;28;20464;-74
2023/08/23 08:45:19;;;;;;;11.23;6.75;;;;;;;25.48;57.76;98543.69;5050901;28;20036;-74
2023/08/23 08:47:46;;;;;;;10.27;5.85;;;;;;;25.60;57.85;98543.78;5051448;28;20112;-74
2023/08/23 08:50:12;;;;;;;12.98;6.30;;;;;;;25.78;58.22;98546.09;5051522;28;20040;-74
2023/08/23 08:52:42;;;;;;;9.50;5.20;;;;;;;25.81;56.56;98552.91;5034692;28;20040;-74
2023/08/23 08:55:08;;;;;;;9.95;5.97;;;;;;;25.77;56.58;98546.41;5034885;28;20032;-73
2023/08/23 08:57:33;;;;;;;12.85;5.40;;;;;;;25.80;56.11;98543.00;5051388;28;20058;-73
2023/08/23 08:59:59;;;;;;;8.90;5.32;;;;;;;25.90;56.47;98553.66;5035780;28;20024;-74
2023/08/23 09:02:26;;;;;;;11.18;5.65;;;;;;;26.02;55.97;98550.97;5034961;28;20025;-74
2023/08/23 09:04:51;;;;;;;10.95;5.50;;;;;;;26.03;56.43;98536.81;5034596;28;20485;-74
2023/08/23 09:07:16;;;;;;;9.23;5.70;;;;;;;26.04;57.82;98543.94;5051084;28;20119;-73
2023/08/23 09:09:43;;;;;;;15.98;6.05;;;;;;;26.08;57.92;98550.44;5051148;28;20024;-74
2023/08/23 09:12:09;;;;;;;11.65;5.93;;;;;;;26.20;56.87;98546.13;5034532;28;20376;-73
2023/08/23 09:14:34;;;;;;;10.50;5.57;;;;;;;26.28;56.09;98548.81;5034029;28;20040;-74
2023/08/23 09:16:59;;;;;;;11.07;5.30;;;;;;;26.30;55.51;98545.75;5050640;28;20036;-74
2023/08/23 09:19:25;;;;;;;9.85;5.40;;;;;;;26.32;55.15;98548.97;5050511;28;20380;-74
2023/08/23 09:21:50;;;;;;;7.45;5.28;;;;;;;26.27;54.39;98538.13;5033871;28;20037;-74
2023/08/23 09:24:16;;;;;;;7.57;4.68;;;;;;;26.29;54.69;98549.63;5033640;28;20487;-73
2023/08/23 09:26:45;;;;;;;11.20;5.80;;;;;;;26.18;53.54;98516.13;5033659;28;20510;-73
2023/08/23 09:29:11;;;;;;;11.43;5.10;;;;;;;26.33;52.78;98534.81;5048230;28;20033;-74
2023/08/23 09:31:36;;;;;;;10.27;5.00;;;;;;;26.48;52.41;98538.91;5047292;28;20037;-73
2023/08/23 09:34:03;;;;;;;11.40;4.75;;;;;;;26.40;52.07;98529.53;5051038;28;20120;-74
2023/08/23 09:36:30;;;;;;;6.38;4.78;;;;;;;26.51;52.23;98546.50;5033255;28;20052;-74
2023/08/23 09:39:01;;;;;;;8.18;4.90;;;;;;;26.60;51.28;98550.81;5047582;28;20111;-74
2023/08/23 09:41:27;;;;;;;7.22;4.72;;;;;;;26.65;52.81;98533.22;5043751;28;20135;-71
2023/08/23 09:43:56;;;;;;;7.93;4.32;;;;;;;26.79;52.22;98542.03;5037815;28;20107;-74
2023/08/23 09:46:25;;;;;;;5.85;4.68;;;;;;;26.96;52.73;98557.59;5034055;28;20514;-74
2023/08/23 09:48:52;;;;;;;8.10;4.72;;;;;;;26.87;51.85;98552.16;5041084;28;20024;-72
2023/08/23 09:51:19;;;;;;;8.85;4.32;;;;;;;26.80;51.61;98549.16;5051515;28;20124;-74
2023/08/23 09:53:46;;;;;;;7.05;4.03;;;;;;;26.61;50.45;98540.53;5032937;28;20044;-74
2023/08/23 09:56:11;;;;;;;8.23;4.20;;;;;;;26.87;50.76;98532.81;5050125;28;20045;-74
2023/08/23 09:58:38;;;;;;;4.45;3.75;;;;;;;26.93;49.69;98530.66;5051414;28;20023;-73
2023/08/23 10:01:03;;;;;;;9.77;4.28;;;;;;;27.06;49.13;98540.56;5033458;28;20039;-74
2023/08/23 10:03:29;;;;;;;9.32;4.90;;;;;;;26.93;49.01;98527.88;5049949;28;20121;-73
2023/08/23 10:05:55;;;;;;;8.20;4.28;;;;;;;26.96;50.40;98513.34;5049934;28;20044;-74
2023/08/23 10:08:20;;;;;;;7.80;4.30;;;;;;;27.20;49.83;98530.78;5051300;28;20108;-74
2023/08/23 10:10:50;;;;;;;7.80;4.40;;;;;;;27.19;49.18;98525.63;5033254;28;20083;-74
2023/08/23 10:13:16;;;;;;;8.90;4.28;;;;;;;27.21;49.82;98521.31;5033653;28;20070;-74
2023/08/23 10:15:41;;;;;;;6.97;4.03;;;;;;;27.15;50.73;98519.13;5049937;28;20045;-72
2023/08/23 10:18:10;;;;;;;6.22;3.80;;;;;;;27.36;49.59;98534.47;5013399;28;20074;-74
2023/08/23 10:20:37;;;;;;;5.95;3.85;;;;;;;27.17;49.38;98525.94;5070977;28;20045;-74
2023/08/23 10:23:12;;;;;;;5.75;3.88;;;;;;;27.18;47.68;98519.28;5049281;28;20100;-73
2023/08/23 10:25:38;;;;;;;;;;;;;;;27.18;47.50;98529.53;5050820;28;20032;-74
2023/08/23 10:28:04;;;;;;;6.60;3.80;;;;;;;27.48;47.02;98530.13;5048456;28;19928;-74
2023/08/23 10:30:30;;;;;;;5.10;3.45;;;;;;;27.46;46.20;98521.38;5048203;28;20185;-73
2023/08/23 10:33:07;;;;;;;5.90;3.30;;;;;;;27.50;45.93;98516.75;5032620;28;20027;-74
2023/08/23 10:35:32;;;;;;;5.20;3.70;;;;;;;27.71;46.42;98511.88;5049453;28;20041;-74
2023/08/23 10:37:58;;;;;;;4.03;3.17;;;;;;;27.77;46.86;98499.41;5049587;28;20414;-73
2023/08/23 10:40:31;;;;;;;9.00;3.97;;;;;;;27.36;46.07;98494.94;5033149;28;20433;-74
2023/08/23 10:42:56;;;;;;;5.47;3.80;;;;;;;27.67;44.47;98516.50;5032883;28;20099;-74
2023/08/23 10:45:21;;;;;;;6.32;3.13;;;;;;;27.75;44.99;98507.28;5049617;28;20475;-74
2023/08/23 10:47:51;;;;;;;6.85;3.55;;;;;;;27.74;45.79;98505.66;5032829;28;20094;-73
2023/08/23 10:50:17;;;;;;;7.10;3.45;;;;;;;27.90;46.15;98492.69;5050655;28;20025;-73
2023/08/23 10:52:43;;;;;;;9.05;3.42;;;;;;;27.95;45.28;98500.75;5032292;28;20029;-74
2023/08/23 10:55:09;;;;;;;4.95;3.60;;;;;;;28.08;45.71;98499.56;5048127;28;20506;-74
2023/08/23 10:57:35;;;;;;;4.95;3.90;;;;;;;28.17;45.43;98497.47;5048134;28;20482;-73
2023/08/23 11:00:00;;;;;;;5.43;3.78;;;;;;;28.24;45.58;98497.66;5030645;28;20028;-74
2023/08/23 11:02:26;;;;;;;6.85;3.88;;;;;;;27.92;46.03;98495.91;5028273;28;20049;-74
2023/08/23 11:04:51;;;;;;;9.07;4.10;;;;;;;28.09;45.42;98495.66;5016483;28;20028;-73
2023/08/23 11:07:17;;;;;;;7.25;4.10;;;;;;;28.10;45.37;98497.25;5051867;28;20033;-74
2023/08/23 11:09:43;;;;;;;8.23;4.07;;;;;;;28.01;45.55;98494.66;5053604;28;20025;-74
2023/08/23 11:12:08;;;;;;;5.40;3.78;;;;;;;27.97;46.32;98492.91;5050906;28;20041;-74
2023/08/23 11:14:34;;;;;;;6.60;3.60;;;;;;;28.28;46.06;98487.50;5036361;28;20186;-74
2023/08/23 11:16:59;;;;;;;6.43;3.60;;;;;;;28.40;45.08;98473.56;5053366;28;20450;-73
2023/08/23 11:19:25;;;;;;;7.10;3.50;;;;;;;28.74;45.21;98484.06;5020288;28;20029;-74
2023/08/23 11:21:51;;;;;;;7.05;4.00;;;;;;;28.59;45.89;98470.19;5053187;28;20048;-74
2023/08/23 11:24:17;;;;;;;7.32;3.90;;;;;;;28.66;45.75;98468.38;5036492;28;20024;-74